sensor_id;sensor_type;location;lat;lon;timestamp;pressure;altitude;pressure_sealevel;temperature;humidity
15487;BME280;7845;53.698;10.078;2024-02-16T00:00:11;100913.72;;;12.61;91.52
15487;BME280;7845;53.698;10.078;2024-02-16T00:02:38;100882.44;;;12.34;91.23
15487;BME280;7845;53.698;10.078;2024-02-16T00:05:04;100916.09;;;12.53;91.37
15487;BME280;7845;53.698;10.078;2024-02-16T00:07:31;100907.44;;;12.51;91.47
15487;BME280;7845;53.698;10.078;2024-02-16T00:09:56;100907.00;;;12.46;91.81
15487;BME280;7845;53.698;10.078;2024-02-16T00:12:23;100904.47;;;12.44;91.18
15487;BME280;7845;53.698;10.078;2024-02-16T00:14:48;100837.88;;;12.09;91.40
15487;BME280;7845;53.698;10.078;2024-02-16T00:17:13;100896.09;;;12.39;91.96
15487;BME280;7845;53.698;10.078;2024-02-16T00:19:39;100891.78;;;12.38;91.53
15487;BME280;7845;53.698;10.078;2024-02-16T00:22:04;100888.53;;;12.35;91.93
15487;BME280;7845;53.698;10.078;2024-02-16T00:24:32;100888.88;;;12.30;91.62
15487;BME280;7845;53.698;10.078;2024-02-16T00:26:58;100880.63;;;12.24;91.77
15487;BME280;7845;53.698;10.078;2024-02-16T00:29:23;100841.47;;;11.97;91.44
15487;BME280;7845;53.698;10.078;2024-02-16T00:31:49;100879.31;;;12.18;91.88
15487;BME280;7845;53.698;10.078;2024-02-16T00:34:15;100867.31;;;12.14;91.72
15487;BME280;7845;53.698;10.078;2024-02-16T00:36:40;100866.72;;;12.11;92.49
15487;BME280;7845;53.698;10.078;2024-02-16T00:39:05;100863.38;;;12.09;91.93
15487;BME280;7845;53.698;10.078;2024-02-16T00:41:31;100852.84;;;12.09;92.74
15487;BME280;7845;53.698;10.078;2024-02-16T00:43:56;100862.16;;;12.13;92.61
15487;BME280;7845;53.698;10.078;2024-02-16T00:46:22;100862.06;;;12.14;91.83
15487;BME280;7845;53.698;10.078;2024-02-16T00:48:52;100855.72;;;12.17;91.80
15487;BME280;7845;53.698;10.078;2024-02-16T00:51:17;100849.41;;;12.19;92.32
15487;BME280;7845;53.698;10.078;2024-02-16T00:53:43;100853.81;;;12.19;91.88
15487;BME280;7845;53.698;10.078;2024-02-16T00:56:08;100800.22;;;11.97;91.43
15487;BME280;7845;53.698;10.078;2024-02-16T00:58:35;100808.94;;;11.98;91.76
15487;BME280;7845;53.698;10.078;2024-02-16T01:01:01;100849.28;;;12.32;91.50
15487;BME280;7845;53.698;10.078;2024-02-16T01:03:26;100852.53;;;12.35;91.67
15487;BME280;7845;53.698;10.078;2024-02-16T01:05:52;100746.38;;;11.79;90.84
15487;BME280;7845;53.698;10.078;2024-02-16T01:08:18;100842.84;;;12.36;91.28
15487;BME280;7845;53.698;10.078;2024-02-16T01:10:43;100843.91;;;12.33;91.00
15487;BME280;7845;53.698;10.078;2024-02-16T01:13:08;100842.09;;;12.34;91.07
15487;BME280;7845;53.698;10.078;2024-02-16T01:15:35;100832.66;;;12.31;90.49
15487;BME280;7845;53.698;10.078;2024-02-16T01:18:02;100833.75;;;12.29;90.68
15487;BME280;7845;53.698;10.078;2024-02-16T01:20:27;100829.75;;;12.23;90.70
15487;BME280;7845;53.698;10.078;2024-02-16T01:22:56;100834.56;;;12.18;90.50
15487;BME280;7845;53.698;10.078;2024-02-16T01:25:21;100842.69;;;12.15;91.14
15487;BME280;7845;53.698;10.078;2024-02-16T01:27:47;100840.31;;;12.12;90.42
15487;BME280;7845;53.698;10.078;2024-02-16T01:30:12;100847.34;;;12.12;91.02
15487;BME280;7845;53.698;10.078;2024-02-16T01:32:37;100849.25;;;12.10;90.88
15487;BME280;7845;53.698;10.078;2024-02-16T01:35:03;100795.84;;;11.74;91.36
15487;BME280;7845;53.698;10.078;2024-02-16T01:37:28;100846.00;;;12.06;90.42
15487;BME280;7845;53.698;10.078;2024-02-16T01:39:53;100838.25;;;12.04;90.94
15487;BME280;7845;53.698;10.078;2024-02-16T01:42:19;100826.53;;;11.97;90.48
15487;BME280;7845;53.698;10.078;2024-02-16T01:44:44;100776.41;;;11.64;91.17
15487;BME280;7845;53.698;10.078;2024-02-16T01:47:13;100824.59;;;11.99;90.47
15487;BME280;7845;53.698;10.078;2024-02-16T01:49:41;100822.09;;;11.98;90.63
15487;BME280;7845;53.698;10.078;2024-02-16T01:52:06;100819.72;;;11.95;90.36
15487;BME280;7845;53.698;10.078;2024-02-16T01:54:32;100816.94;;;11.96;90.57
15487;BME280;7845;53.698;10.078;2024-02-16T01:56:58;100824.00;;;11.96;91.60
15487;BME280;7845;53.698;10.078;2024-02-16T01:59:24;100821.13;;;11.99;91.43
15487;BME280;7845;53.698;10.078;2024-02-16T02:01:50;100818.50;;;11.99;90.33
15487;BME280;7845;53.698;10.078;2024-02-16T02:04:16;100813.97;;;12.01;90.79
15487;BME280;7845;53.698;10.078;2024-02-16T02:06:41;100815.66;;;12.02;90.78
15487;BME280;7845;53.698;10.078;2024-02-16T02:09:06;100807.75;;;12.02;91.42
15487;BME280;7845;53.698;10.078;2024-02-16T02:11:32;100797.34;;;12.00;90.21
15487;BME280;7845;53.698;10.078;2024-02-16T02:13:57;100788.84;;;11.97;90.92
15487;BME280;7845;53.698;10.078;2024-02-16T02:16:23;100784.66;;;11.94;90.00
15487;BME280;7845;53.698;10.078;2024-02-16T02:18:48;100775.56;;;11.87;91.49
15487;BME280;7845;53.698;10.078;2024-02-16T02:21:14;100772.34;;;11.95;91.41
15487;BME280;7845;53.698;10.078;2024-02-16T02:23:41;100770.44;;;11.97;91.07
15487;BME280;7845;53.698;10.078;2024-02-16T02:26:06;100766.34;;;11.93;90.93
15487;BME280;7845;53.698;10.078;2024-02-16T02:28:32;100763.72;;;11.93;91.60
15487;BME280;7845;53.698;10.078;2024-02-16T02:30:59;100754.88;;;11.94;91.36
15487;BME280;7845;53.698;10.078;2024-02-16T02:33:24;100761.22;;;11.91;91.00
15487;BME280;7845;53.698;10.078;2024-02-16T02:35:50;100753.34;;;11.91;90.95
15487;BME280;7845;53.698;10.078;2024-02-16T02:38:16;100763.00;;;11.91;91.12
15487;BME280;7845;53.698;10.078;2024-02-16T02:40:41;100755.22;;;11.89;90.72
15487;BME280;7845;53.698;10.078;2024-02-16T02:43:07;100758.47;;;11.93;91.05
15487;BME280;7845;53.698;10.078;2024-02-16T02:45:32;100754.97;;;11.92;90.94
15487;BME280;7845;53.698;10.078;2024-02-16T02:47:57;100700.66;;;11.58;90.69
15487;BME280;7845;53.698;10.078;2024-02-16T02:50:23;100742.41;;;11.85;90.92
15487;BME280;7845;53.698;10.078;2024-02-16T02:52:49;100702.56;;;11.56;89.71
15487;BME280;7845;53.698;10.078;2024-02-16T02:55:14;100746.72;;;11.86;90.70
15487;BME280;7845;53.698;10.078;2024-02-16T02:57:40;100745.88;;;11.85;91.23
15487;BME280;7845;53.698;10.078;2024-02-16T03:00:09;100744.34;;;11.83;90.52
15487;BME280;7845;53.698;10.078;2024-02-16T03:02:37;100739.09;;;11.83;90.93
15487;BME280;7845;53.698;10.078;2024-02-16T03:05:03;100634.28;;;11.21;90.46
15487;BME280;7845;53.698;10.078;2024-02-16T03:07:28;100740.16;;;11.80;90.97
15487;BME280;7845;53.698;10.078;2024-02-16T03:09:53;100730.59;;;11.79;91.59
15487;BME280;7845;53.698;10.078;2024-02-16T03:12:19;100725.31;;;11.79;90.81
15487;BME280;7845;53.698;10.078;2024-02-16T03:14:44;100724.50;;;11.79;90.98
15487;BME280;7845;53.698;10.078;2024-02-16T03:17:09;100710.38;;;11.80;90.69
15487;BME280;7845;53.698;10.078;2024-02-16T03:19:35;100703.69;;;11.76;90.72
15487;BME280;7845;53.698;10.078;2024-02-16T03:22:01;100710.63;;;11.77;90.39
15487;BME280;7845;53.698;10.078;2024-02-16T03:24:26;100699.13;;;11.78;90.88
15487;BME280;7845;53.698;10.078;2024-02-16T03:26:51;100698.53;;;11.74;90.63
15487;BME280;7845;53.698;10.078;2024-02-16T03:29:17;100696.50;;;11.78;90.46
15487;BME280;7845;53.698;10.078;2024-02-16T03:31:42;100695.09;;;11.74;90.68
15487;BME280;7845;53.698;10.078;2024-02-16T03:34:08;100680.00;;;11.76;90.82
15487;BME280;7845;53.698;10.078;2024-02-16T03:36:33;100598.53;;;11.19;90.81
15487;BME280;7845;53.698;10.078;2024-02-16T03:38:59;100626.41;;;11.43;90.60
15487;BME280;7845;53.698;10.078;2024-02-16T03:41:24;100642.53;;;11.50;90.75
15487;BME280;7845;53.698;10.078;2024-02-16T03:43:50;100680.84;;;11.76;90.54
15487;BME280;7845;53.698;10.078;2024-02-16T03:46:16;100690.53;;;11.76;90.79
15487;BME280;7845;53.698;10.078;2024-02-16T03:48:42;100685.97;;;11.78;90.91
15487;BME280;7845;53.698;10.078;2024-02-16T03:51:07;100692.22;;;11.77;90.76
15487;BME280;7845;53.698;10.078;2024-02-16T03:53:33;100650.44;;;11.50;90.78
15487;BME280;7845;53.698;10.078;2024-02-16T03:55:59;100691.97;;;11.80;90.64
15487;BME280;7845;53.698;10.078;2024-02-16T03:58:24;100695.69;;;11.77;90.04
15487;BME280;7845;53.698;10.078;2024-02-16T04:00:50;100703.44;;;11.79;90.00
15487;BME280;7845;53.698;10.078;2024-02-16T04:03:16;100686.34;;;11.73;90.87
15487;BME280;7845;53.698;10.078;2024-02-16T04:05:42;100654.50;;;11.54;90.19
15487;BME280;7845;53.698;10.078;2024-02-16T04:08:07;100695.22;;;11.83;89.72
15487;BME280;7845;53.698;10.078;2024-02-16T04:10:33;100688.25;;;11.82;89.82
15487;BME280;7845;53.698;10.078;2024-02-16T04:12:59;100634.44;;;11.53;89.78
15487;BME280;7845;53.698;10.078;2024-02-16T04:15:25;100685.78;;;11.81;89.67
15487;BME280;7845;53.698;10.078;2024-02-16T04:17:51;100678.59;;;11.83;89.15
15487;BME280;7845;53.698;10.078;2024-02-16T04:20:16;100681.22;;;11.83;89.71
15487;BME280;7845;53.698;10.078;2024-02-16T04:22:43;100669.84;;;11.82;90.02
15487;BME280;7845;53.698;10.078;2024-02-16T04:25:08;100670.00;;;11.81;90.11
15487;BME280;7845;53.698;10.078;2024-02-16T04:27:34;100669.16;;;11.80;89.42
15487;BME280;7845;53.698;10.078;2024-02-16T04:29:59;100675.25;;;11.81;90.01
15487;BME280;7845;53.698;10.078;2024-02-16T04:32:25;100671.78;;;11.80;89.90
15487;BME280;7845;53.698;10.078;2024-02-16T04:34:51;100670.00;;;11.81;89.93
15487;BME280;7845;53.698;10.078;2024-02-16T04:37:21;100672.47;;;11.82;90.47
15487;BME280;7845;53.698;10.078;2024-02-16T04:39:46;100672.72;;;11.79;89.00
15487;BME280;7845;53.698;10.078;2024-02-16T04:42:12;100583.03;;;11.27;89.40
15487;BME280;7845;53.698;10.078;2024-02-16T04:44:38;100676.91;;;11.82;89.46
15487;BME280;7845;53.698;10.078;2024-02-16T04:47:06;100667.13;;;11.84;88.99
15487;BME280;7845;53.698;10.078;2024-02-16T04:49:32;100673.09;;;11.86;89.55
15487;BME280;7845;53.698;10.078;2024-02-16T04:51:57;100670.69;;;11.83;89.83
15487;BME280;7845;53.698;10.078;2024-02-16T04:54:23;100673.31;;;11.83;89.71
15487;BME280;7845;53.698;10.078;2024-02-16T04:56:49;100670.69;;;11.83;89.13
15487;BME280;7845;53.698;10.078;2024-02-16T04:59:14;100669.16;;;11.80;88.74
15487;BME280;7845;53.698;10.078;2024-02-16T05:01:40;100672.97;;;11.76;89.43
15487;BME280;7845;53.698;10.078;2024-02-16T05:04:06;100669.50;;;11.76;89.63
15487;BME280;7845;53.698;10.078;2024-02-16T05:06:32;100671.41;;;11.74;89.63
15487;BME280;7845;53.698;10.078;2024-02-16T05:08:57;100668.91;;;11.72;89.56
15487;BME280;7845;53.698;10.078;2024-02-16T05:11:23;100659.22;;;11.73;90.05
15487;BME280;7845;53.698;10.078;2024-02-16T05:13:49;100652.50;;;11.69;89.26
15487;BME280;7845;53.698;10.078;2024-02-16T05:16:15;100651.53;;;11.70;89.38
15487;BME280;7845;53.698;10.078;2024-02-16T05:18:40;100659.44;;;11.70;89.31
15487;BME280;7845;53.698;10.078;2024-02-16T05:21:06;100603.34;;;11.36;89.17
15487;BME280;7845;53.698;10.078;2024-02-16T05:23:31;100659.44;;;11.70;89.53
15487;BME280;7845;53.698;10.078;2024-02-16T05:25:56;100658.59;;;11.69;89.33
15487;BME280;7845;53.698;10.078;2024-02-16T05:28:21;100648.19;;;11.68;89.08
15487;BME280;7845;53.698;10.078;2024-02-16T05:30:47;100649.97;;;11.67;89.04
15487;BME280;7845;53.698;10.078;2024-02-16T05:33:12;100647.47;;;11.66;88.84
15487;BME280;7845;53.698;10.078;2024-02-16T05:35:39;100640.41;;;11.66;89.27
15487;BME280;7845;53.698;10.078;2024-02-16T05:38:06;100640.53;;;11.65;88.38
15487;BME280;7845;53.698;10.078;2024-02-16T05:40:46;100599.91;;;11.35;89.37
15487;BME280;7845;53.698;10.078;2024-02-16T05:43:19;100639.81;;;11.63;88.98
15487;BME280;7845;53.698;10.078;2024-02-16T05:45:45;100634.66;;;11.61;89.60
15487;BME280;7845;53.698;10.078;2024-02-16T05:48:11;100646.88;;;11.62;89.03
15487;BME280;7845;53.698;10.078;2024-02-16T05:50:37;100644.25;;;11.62;89.57
15487;BME280;7845;53.698;10.078;2024-02-16T05:53:02;100641.84;;;11.59;88.60
15487;BME280;7845;53.698;10.078;2024-02-16T05:55:27;100634.19;;;11.45;89.17
15487;BME280;7845;53.698;10.078;2024-02-16T05:57:53;100648.41;;;11.53;88.88
15487;BME280;7845;53.698;10.078;2024-02-16T06:00:18;100652.13;;;11.51;89.14
15487;BME280;7845;53.698;10.078;2024-02-16T06:02:46;100649.38;;;11.52;89.61
15487;BME280;7845;53.698;10.078;2024-02-16T06:05:12;100651.16;;;11.52;89.44
15487;BME280;7845;53.698;10.078;2024-02-16T06:07:37;100654.97;;;11.48;89.10
15487;BME280;7845;53.698;10.078;2024-02-16T06:10:06;100657.63;;;11.48;88.90
15487;BME280;7845;53.698;10.078;2024-02-16T06:12:39;100650.81;;;11.45;89.06
15487;BME280;7845;53.698;10.078;2024-02-16T06:15:05;100652.84;;;11.42;89.16
15487;BME280;7845;53.698;10.078;2024-02-16T06:17:30;100641.34;;;11.32;88.73
15487;BME280;7845;53.698;10.078;2024-02-16T06:19:55;100651.03;;;11.31;88.95
15487;BME280;7845;53.698;10.078;2024-02-16T06:22:21;100649.34;;;11.30;89.05
15487;BME280;7845;53.698;10.078;2024-02-16T06:24:46;100558.22;;;10.74;89.54
15487;BME280;7845;53.698;10.078;2024-02-16T06:27:11;100654.94;;;11.26;89.92
15487;BME280;7845;53.698;10.078;2024-02-16T06:29:37;100637.16;;;11.18;89.77
15487;BME280;7845;53.698;10.078;2024-02-16T06:32:02;100647.53;;;11.20;89.98
15487;BME280;7845;53.698;10.078;2024-02-16T06:34:28;100651.94;;;11.19;89.40
15487;BME280;7845;53.698;10.078;2024-02-16T06:36:53;100653.00;;;11.17;90.09
15487;BME280;7845;53.698;10.078;2024-02-16T06:39:18;100649.19;;;11.10;90.22
15487;BME280;7845;53.698;10.078;2024-02-16T06:41:45;100654.53;;;11.08;89.82
15487;BME280;7845;53.698;10.078;2024-02-16T06:44:11;100652.88;;;11.07;89.82
15487;BME280;7845;53.698;10.078;2024-02-16T06:46:37;100610.41;;;10.78;89.74
15487;BME280;7845;53.698;10.078;2024-02-16T06:49:02;100661.00;;;11.04;89.85
15487;BME280;7845;53.698;10.078;2024-02-16T06:51:27;100654.16;;;11.01;90.34
15487;BME280;7845;53.698;10.078;2024-02-16T06:53:54;100662.03;;;11.01;90.10
15487;BME280;7845;53.698;10.078;2024-02-16T06:56:19;100654.16;;;11.01;90.41
15487;BME280;7845;53.698;10.078;2024-02-16T06:58:45;100656.91;;;11.00;90.47
15487;BME280;7845;53.698;10.078;2024-02-16T07:01:12;100636.56;;;10.91;89.72
15487;BME280;7845;53.698;10.078;2024-02-16T07:03:38;100651.75;;;10.98;89.59
15487;BME280;7845;53.698;10.078;2024-02-16T07:06:04;100646.25;;;10.90;89.63
15487;BME280;7845;53.698;10.078;2024-02-16T07:08:29;100655.22;;;10.99;89.72
15487;BME280;7845;53.698;10.078;2024-02-16T07:10:54;100655.13;;;11.00;89.42
15487;BME280;7845;53.698;10.078;2024-02-16T07:13:24;100661.09;;;11.02;89.47
15487;BME280;7845;53.698;10.078;2024-02-16T07:15:49;100662.66;;;11.05;89.82
15487;BME280;7845;53.698;10.078;2024-02-16T07:18:15;100674.75;;;11.07;89.50
15487;BME280;7845;53.698;10.078;2024-02-16T07:20:40;100664.94;;;11.10;89.27
15487;BME280;7845;53.698;10.078;2024-02-16T07:23:06;100677.84;;;11.13;89.50
15487;BME280;7845;53.698;10.078;2024-02-16T07:25:31;100674.88;;;11.17;89.31
15487;BME280;7845;53.698;10.078;2024-02-16T07:27:57;100679.75;;;11.22;89.03
15487;BME280;7845;53.698;10.078;2024-02-16T07:30:22;100684.44;;;11.29;88.91
15487;BME280;7845;53.698;10.078;2024-02-16T07:32:50;100683.88;;;11.37;88.81
15487;BME280;7845;53.698;10.078;2024-02-16T07:35:17;100665.97;;;11.42;88.79
15487;BME280;7845;53.698;10.078;2024-02-16T07:37:42;100666.00;;;11.53;88.68
15487;BME280;7845;53.698;10.078;2024-02-16T07:40:08;100675.78;;;11.62;88.04
15487;BME280;7845;53.698;10.078;2024-02-16T07:42:38;100610.53;;;11.34;88.32
15487;BME280;7845;53.698;10.078;2024-02-16T07:45:04;100645.53;;;11.68;87.35
15487;BME280;7845;53.698;10.078;2024-02-16T07:47:31;100657.28;;;11.86;87.38
15487;BME280;7845;53.698;10.078;2024-02-16T07:49:57;100663.66;;;11.94;87.07
15487;BME280;7845;53.698;10.078;2024-02-16T07:52:22;100666.50;;;12.02;87.81
15487;BME280;7845;53.698;10.078;2024-02-16T07:54:47;100627.66;;;11.84;86.43
15487;BME280;7845;53.698;10.078;2024-02-16T07:57:13;100676.06;;;12.15;87.04
15487;BME280;7845;53.698;10.078;2024-02-16T07:59:38;100673.06;;;12.19;86.70
15487;BME280;7845;53.698;10.078;2024-02-16T08:02:05;100670.06;;;12.24;86.41
15487;BME280;7845;53.698;10.078;2024-02-16T08:04:32;100682.50;;;12.33;85.97
15487;BME280;7845;53.698;10.078;2024-02-16T08:06:57;100668.34;;;12.45;85.85
15487;BME280;7845;53.698;10.078;2024-02-16T08:09:22;100656.16;;;12.44;85.68
15487;BME280;7845;53.698;10.078;2024-02-16T08:11:48;100675.84;;;12.61;84.58
15487;BME280;7845;53.698;10.078;2024-02-16T08:14:13;100670.19;;;12.65;84.35
15487;BME280;7845;53.698;10.078;2024-02-16T08:16:38;100668.97;;;12.69;84.83
15487;BME280;7845;53.698;10.078;2024-02-16T08:19:03;100658.91;;;12.74;84.29
15487;BME280;7845;53.698;10.078;2024-02-16T08:21:29;100660.09;;;12.81;84.02
15487;BME280;7845;53.698;10.078;2024-02-16T08:23:54;100638.22;;;12.90;84.05
15487;BME280;7845;53.698;10.078;2024-02-16T08:26:19;100652.63;;;13.07;83.89
15487;BME280;7845;53.698;10.078;2024-02-16T08:28:45;100643.28;;;13.14;83.27
15487;BME280;7845;53.698;10.078;2024-02-16T08:31:15;100636.94;;;13.17;82.46
15487;BME280;7845;53.698;10.078;2024-02-16T08:33:40;100635.84;;;13.19;82.85
15487;BME280;7845;53.698;10.078;2024-02-16T08:36:07;100636.94;;;13.17;82.30
15487;BME280;7845;53.698;10.078;2024-02-16T08:38:32;100636.41;;;13.23;82.97
15487;BME280;7845;53.698;10.078;2024-02-16T08:40:58;100625.75;;;13.24;82.20
15487;BME280;7845;53.698;10.078;2024-02-16T08:43:24;100636.72;;;13.29;82.46
15487;BME280;7845;53.698;10.078;2024-02-16T08:45:50;100632.75;;;13.35;82.03
15487;BME280;7845;53.698;10.078;2024-02-16T08:48:16;100646.09;;;13.43;81.68
15487;BME280;7845;53.698;10.078;2024-02-16T08:50:41;100642.81;;;13.50;81.83
15487;BME280;7845;53.698;10.078;2024-02-16T08:53:06;100646.97;;;13.53;80.68
15487;BME280;7845;53.698;10.078;2024-02-16T08:55:39;100590.94;;;13.30;81.64
15487;BME280;7845;53.698;10.078;2024-02-16T08:58:07;100641.44;;;13.56;80.95
15487;BME280;7845;53.698;10.078;2024-02-16T09:00:32;100637.47;;;13.62;80.43
15487;BME280;7845;53.698;10.078;2024-02-16T09:02:58;100639.84;;;13.65;80.89
15487;BME280;7845;53.698;10.078;2024-02-16T09:05:23;100638.16;;;13.64;80.66
15487;BME280;7845;53.698;10.078;2024-02-16T09:07:48;100641.63;;;13.64;80.38
15487;BME280;7845;53.698;10.078;2024-02-16T09:10:14;100647.88;;;13.63;80.32
15487;BME280;7845;53.698;10.078;2024-02-16T09:12:39;100631.06;;;13.64;80.06
15487;BME280;7845;53.698;10.078;2024-02-16T09:15:05;100628.25;;;13.56;79.66
15487;BME280;7845;53.698;10.078;2024-02-16T09:17:31;100630.97;;;13.66;79.72
15487;BME280;7845;53.698;10.078;2024-02-16T09:19:56;100631.66;;;13.68;79.96
15487;BME280;7845;53.698;10.078;2024-02-16T09:22:21;100636.66;;;13.71;80.00
15487;BME280;7845;53.698;10.078;2024-02-16T09:24:47;100632.94;;;13.73;79.84
15487;BME280;7845;53.698;10.078;2024-02-16T09:27:12;100627.25;;;13.78;79.98
15487;BME280;7845;53.698;10.078;2024-02-16T09:29:38;100634.88;;;13.81;79.77
15487;BME280;7845;53.698;10.078;2024-02-16T09:32:03;100644.47;;;13.82;79.82
15487;BME280;7845;53.698;10.078;2024-02-16T09:34:29;100635.19;;;13.87;79.35
15487;BME280;7845;53.698;10.078;2024-02-16T09:36:55;100583.88;;;13.61;79.55
15487;BME280;7845;53.698;10.078;2024-02-16T09:39:20;100639.41;;;13.99;79.39
15487;BME280;7845;53.698;10.078;2024-02-16T09:41:50;100637.44;;;14.01;79.40
15487;BME280;7845;53.698;10.078;2024-02-16T09:44:16;100630.81;;;13.97;78.88
15487;BME280;7845;53.698;10.078;2024-02-16T09:46:41;100641.94;;;14.01;79.48
15487;BME280;7845;53.698;10.078;2024-02-16T09:49:07;100647.63;;;14.06;78.95
15487;BME280;7845;53.698;10.078;2024-02-16T09:51:36;100644.44;;;14.12;79.01
15487;BME280;7845;53.698;10.078;2024-02-16T09:54:02;100643.66;;;14.21;78.65
15487;BME280;7845;53.698;10.078;2024-02-16T09:56:28;100644.34;;;14.33;78.48
15487;BME280;7845;53.698;10.078;2024-02-16T09:58:53;100653.41;;;14.40;78.39
15487;BME280;7845;53.698;10.078;2024-02-16T10:01:23;100653.56;;;14.38;77.97
15487;BME280;7845;53.698;10.078;2024-02-16T10:03:49;100654.53;;;14.37;78.20
15487;BME280;7845;53.698;10.078;2024-02-16T10:06:16;100613.31;;;14.06;77.59
15487;BME280;7845;53.698;10.078;2024-02-16T10:08:54;100649.06;;;14.29;77.98
15487;BME280;7845;53.698;10.078;2024-02-16T10:11:23;100648.78;;;14.23;77.75
15487;BME280;7845;53.698;10.078;2024-02-16T10:14:00;100647.97;;;14.22;78.54
15487;BME280;7845;53.698;10.078;2024-02-16T10:16:27;100647.13;;;14.22;78.32
15487;BME280;7845;53.698;10.078;2024-02-16T10:18:56;100666.16;;;14.25;78.06
15487;BME280;7845;53.698;10.078;2024-02-16T10:21:28;100660.78;;;14.36;78.18
15487;BME280;7845;53.698;10.078;2024-02-16T10:24:04;100659.56;;;14.50;78.57
15487;BME280;7845;53.698;10.078;2024-02-16T10:26:31;100660.53;;;14.59;77.84
15487;BME280;7845;53.698;10.078;2024-02-16T10:28:57;100668.91;;;14.64;77.52
15487;BME280;7845;53.698;10.078;2024-02-16T10:31:24;100664.19;;;14.67;77.16
15487;BME280;7845;53.698;10.078;2024-02-16T10:34:03;100661.94;;;14.72;77.50
15487;BME280;7845;53.698;10.078;2024-02-16T10:36:31;100672.09;;;14.77;76.82
15487;BME280;7845;53.698;10.078;2024-02-16T10:38:57;100672.09;;;14.77;76.97
15487;BME280;7845;53.698;10.078;2024-02-16T10:41:26;100667.09;;;14.83;76.94
15487;BME280;7845;53.698;10.078;2024-02-16T10:43:55;100678.22;;;14.87;76.88
15487;BME280;7845;53.698;10.078;2024-02-16T10:46:22;100680.59;;;14.90;77.05
15487;BME280;7845;53.698;10.078;2024-02-16T10:48:48;100679.91;;;14.88;76.37
15487;BME280;7845;53.698;10.078;2024-02-16T10:51:15;100675.72;;;14.85;76.38
15487;BME280;7845;53.698;10.078;2024-02-16T10:53:45;100595.00;;;14.33;76.86
15487;BME280;7845;53.698;10.078;2024-02-16T10:56:13;100604.03;;;14.31;77.15
15487;BME280;7845;53.698;10.078;2024-02-16T10:58:38;100668.06;;;14.73;77.65
15487;BME280;7845;53.698;10.078;2024-02-16T11:01:09;100679.19;;;14.67;77.89
15487;BME280;7845;53.698;10.078;2024-02-16T11:03:37;100664.19;;;14.67;78.34
15487;BME280;7845;53.698;10.078;2024-02-16T11:06:13;100647.63;;;14.65;78.67
15487;BME280;7845;53.698;10.078;2024-02-16T11:08:39;100663.91;;;14.80;78.33
15487;BME280;7845;53.698;10.078;2024-02-16T11:11:05;100626.47;;;14.65;78.17
15487;BME280;7845;53.698;10.078;2024-02-16T11:13:35;100659.28;;;15.11;78.16
15487;BME280;7845;53.698;10.078;2024-02-16T11:16:01;100657.03;;;15.35;77.76
15487;BME280;7845;53.698;10.078;2024-02-16T11:18:37;100658.00;;;15.53;76.81
15487;BME280;7845;53.698;10.078;2024-02-16T11:21:03;100663.53;;;15.60;75.74
15487;BME280;7845;53.698;10.078;2024-02-16T11:23:30;100657.94;;;15.63;75.48
15487;BME280;7845;53.698;10.078;2024-02-16T11:26:06;100656.56;;;15.68;75.48
15487;BME280;7845;53.698;10.078;2024-02-16T11:28:36;100650.38;;;15.77;75.29
15487;BME280;7845;53.698;10.078;2024-02-16T11:31:02;100655.63;;;15.87;74.90
15487;BME280;7845;53.698;10.078;2024-02-16T11:33:28;100648.97;;;15.83;75.76
15487;BME280;7845;53.698;10.078;2024-02-16T11:35:58;100650.25;;;15.79;73.64
15487;BME280;7845;53.698;10.078;2024-02-16T11:38:25;100663.03;;;15.83;74.66
15487;BME280;7845;53.698;10.078;2024-02-16T11:41:01;100651.16;;;15.87;74.43
15487;BME280;7845;53.698;10.078;2024-02-16T11:43:27;100660.19;;;15.94;74.14
15487;BME280;7845;53.698;10.078;2024-02-16T11:45:52;100646.28;;;15.92;73.41
15487;BME280;7845;53.698;10.078;2024-02-16T11:48:26;100642.81;;;15.92;73.34
15487;BME280;7845;53.698;10.078;2024-02-16T11:51:03;100646.59;;;15.89;72.40
15487;BME280;7845;53.698;10.078;2024-02-16T11:53:29;100651.03;;;15.89;72.97
15487;BME280;7845;53.698;10.078;2024-02-16T11:55:54;100656.16;;;15.90;73.42
15487;BME280;7845;53.698;10.078;2024-02-16T11:58:20;100654.34;;;15.91;73.80
15487;BME280;7845;53.698;10.078;2024-02-16T12:00:46;100651.16;;;15.87;73.83
15487;BME280;7845;53.698;10.078;2024-02-16T12:03:23;100596.84;;;15.46;73.19
15487;BME280;7845;53.698;10.078;2024-02-16T12:05:53;100651.88;;;15.89;74.13
15487;BME280;7845;53.698;10.078;2024-02-16T12:08:19;100652.56;;;15.91;73.36
15487;BME280;7845;53.698;10.078;2024-02-16T12:10:46;100649.00;;;16.00;73.62
15487;BME280;7845;53.698;10.078;2024-02-16T12:13:12;100642.59;;;16.03;73.25
15487;BME280;7845;53.698;10.078;2024-02-16T12:15:38;100649.72;;;16.02;73.07
15487;BME280;7845;53.698;10.078;2024-02-16T12:18:03;100655.69;;;16.04;72.84
15487;BME280;7845;53.698;10.078;2024-02-16T12:20:30;100645.94;;;16.05;73.38
15487;BME280;7845;53.698;10.078;2024-02-16T12:22:56;100651.41;;;15.94;72.74
15487;BME280;7845;53.698;10.078;2024-02-16T12:25:22;100645.44;;;15.92;73.14
15487;BME280;7845;53.698;10.078;2024-02-16T12:27:47;100638.63;;;15.89;73.44
15487;BME280;7845;53.698;10.078;2024-02-16T12:30:12;100644.38;;;15.85;73.26
15487;BME280;7845;53.698;10.078;2024-02-16T12:32:38;100642.69;;;15.84;73.69
15487;BME280;7845;53.698;10.078;2024-02-16T12:35:03;100644.06;;;15.88;73.96
15487;BME280;7845;53.698;10.078;2024-02-16T12:37:30;100645.16;;;15.95;73.93
15487;BME280;7845;53.698;10.078;2024-02-16T12:39:56;100649.19;;;15.99;73.52
15487;BME280;7845;53.698;10.078;2024-02-16T12:42:21;100650.63;;;16.11;74.41
15487;BME280;7845;53.698;10.078;2024-02-16T12:44:46;100655.78;;;16.13;74.26